sensor_id;sensor_type;location;lat;lon;timestamp;P1;durP1;ratioP1;P2;durP2;ratioP2
8675;SDS011;4375;52.486;13.424;2023-06-14T00:01:20;18.23;;;3.33;;
8675;SDS011;4375;52.486;13.424;2023-06-14T00:03:47;18.07;;;3.20;;
8675;SDS011;4375;52.486;13.424;2023-06-14T00:06:13;17.70;;;3.37;;
8675;SDS011;4375;52.486;13.424;2023-06-14T00:08:39;15.53;;;2.87;;
8675;SDS011;4375;52.486;13.424;2023-06-14T00:11:05;16.53;;;3.17;;
8675;SDS011;4375;52.486;13.424;2023-06-14T00:13:31;16.03;;;3.43;;
8675;SDS011;4375;52.486;13.424;2023-06-14T00:15:57;17.10;;;3.30;;
8675;SDS011;4375;52.486;13.424;2023-06-14T00:18:23;16.43;;;3.60;;
8675;SDS011;4375;52.486;13.424;2023-06-14T00:20:49;16.50;;;3.30;;
8675;SDS011;4375;52.486;13.424;2023-06-14T00:23:15;16.80;;;3.30;;
8675;SDS011;4375;52.486;13.424;2023-06-14T00:25:41;15.70;;;3.50;;
8675;SDS011;4375;52.486;13.424;2023-06-14T00:28:07;20.63;;;3.20;;
8675;SDS011;4375;52.486;13.424;2023-06-14T00:30:32;19.00;;;3.90;;
8675;SDS011;4375;52.486;13.424;2023-06-14T00:32:58;17.60;;;3.40;;
8675;SDS011;4375;52.486;13.424;2023-06-14T00:35:24;15.77;;;3.27;;
8675;SDS011;4375;52.486;13.424;2023-06-14T00:37:50;18.77;;;3.70;;
8675;SDS011;4375;52.486;13.424;2023-06-14T00:40:16;16.77;;;3.50;;
8675;SDS011;4375;52.486;13.424;2023-06-14T00:42:41;17.73;;;3.70;;
8675;SDS011;4375;52.486;13.424;2023-06-14T00:45:07;15.60;;;3.57;;
8675;SDS011;4375;52.486;13.424;2023-06-14T00:47:34;17.00;;;3.60;;
8675;SDS011;4375;52.486;13.424;2023-06-14T00:50:02;17.13;;;4.00;;
8675;SDS011;4375;52.486;13.424;2023-06-14T00:52:30;16.30;;;3.00;;
8675;SDS011;4375;52.486;13.424;2023-06-14T00:54:57;16.70;;;3.33;;
8675;SDS011;4375;52.486;13.424;2023-06-14T00:57:23;15.80;;;3.27;;
8675;SDS011;4375;52.486;13.424;2023-06-14T00:59:49;16.83;;;3.77;;
8675;SDS011;4375;52.486;13.424;2023-06-14T01:02:15;16.40;;;3.67;;
8675;SDS011;4375;52.486;13.424;2023-06-14T01:04:42;20.30;;;4.00;;
8675;SDS011;4375;52.486;13.424;2023-06-14T01:12:48;18.10;;;3.77;;
8675;SDS011;4375;52.486;13.424;2023-06-14T01:15:16;16.70;;;3.90;;
8675;SDS011;4375;52.486;13.424;2023-06-14T01:17:43;19.67;;;4.30;;
8675;SDS011;4375;52.486;13.424;2023-06-14T01:20:11;18.80;;;4.40;;
8675;SDS011;4375;52.486;13.424;2023-06-14T01:22:48;19.17;;;4.13;;
8675;SDS011;4375;52.486;13.424;2023-06-14T01:25:20;16.50;;;4.07;;
8675;SDS011;4375;52.486;13.424;2023-06-14T01:27:51;16.93;;;4.40;;
8675;SDS011;4375;52.486;13.424;2023-06-14T01:30:20;19.00;;;4.73;;
8675;SDS011;4375;52.486;13.424;2023-06-14T01:32:47;18.77;;;5.07;;
8675;SDS011;4375;52.486;13.424;2023-06-14T01:35:15;19.13;;;4.70;;
8675;SDS011;4375;52.486;13.424;2023-06-14T01:37:41;20.03;;;4.90;;
8675;SDS011;4375;52.486;13.424;2023-06-14T01:40:08;17.10;;;4.70;;
8675;SDS011;4375;52.486;13.424;2023-06-14T01:42:36;18.70;;;4.50;;
8675;SDS011;4375;52.486;13.424;2023-06-14T01:45:04;19.40;;;5.00;;
8675;SDS011;4375;52.486;13.424;2023-06-14T01:47:31;17.90;;;4.53;;
8675;SDS011;4375;52.486;13.424;2023-06-14T01:49:57;19.00;;;5.20;;
8675;SDS011;4375;52.486;13.424;2023-06-14T01:52:23;18.33;;;5.07;;
8675;SDS011;4375;52.486;13.424;2023-06-14T01:54:52;17.23;;;4.80;;
8675;SDS011;4375;52.486;13.424;2023-06-14T01:57:19;16.10;;;3.83;;
8675;SDS011;4375;52.486;13.424;2023-06-14T01:59:46;17.87;;;5.17;;
8675;SDS011;4375;52.486;13.424;2023-06-14T02:02:14;20.17;;;5.03;;
8675;SDS011;4375;52.486;13.424;2023-06-14T02:04:43;16.57;;;4.50;;
8675;SDS011;4375;52.486;13.424;2023-06-14T02:07:08;17.90;;;5.23;;
8675;SDS011;4375;52.486;13.424;2023-06-14T02:09:34;20.87;;;6.03;;
8675;SDS011;4375;52.486;13.424;2023-06-14T02:12:01;17.43;;;4.77;;
8675;SDS011;4375;52.486;13.424;2023-06-14T02:14:27;20.33;;;5.83;;
8675;SDS011;4375;52.486;13.424;2023-06-14T02:16:53;19.40;;;5.40;;
8675;SDS011;4375;52.486;13.424;2023-06-14T02:19:19;17.23;;;5.10;;
8675;SDS011;4375;52.486;13.424;2023-06-14T02:21:45;22.90;;;4.60;;
8675;SDS011;4375;52.486;13.424;2023-06-14T02:24:11;19.20;;;6.00;;
8675;SDS011;4375;52.486;13.424;2023-06-14T02:26:37;29.03;;;6.77;;
8675;SDS011;4375;52.486;13.424;2023-06-14T02:29:04;19.77;;;5.97;;
8675;SDS011;4375;52.486;13.424;2023-06-14T02:31:30;18.60;;;5.90;;
8675;SDS011;4375;52.486;13.424;2023-06-14T02:33:56;19.17;;;5.60;;
8675;SDS011;4375;52.486;13.424;2023-06-14T02:36:22;19.70;;;5.97;;
8675;SDS011;4375;52.486;13.424;2023-06-14T02:38:48;20.67;;;5.30;;
8675;SDS011;4375;52.486;13.424;2023-06-14T02:41:13;18.00;;;5.40;;
8675;SDS011;4375;52.486;13.424;2023-06-14T02:43:39;21.23;;;5.53;;
8675;SDS011;4375;52.486;13.424;2023-06-14T02:46:05;19.30;;;5.40;;
8675;SDS011;4375;52.486;13.424;2023-06-14T02:48:31;18.97;;;5.33;;
8675;SDS011;4375;52.486;13.424;2023-06-14T02:50:56;20.07;;;6.10;;
8675;SDS011;4375;52.486;13.424;2023-06-14T02:53:22;21.60;;;6.20;;
8675;SDS011;4375;52.486;13.424;2023-06-14T02:55:48;18.50;;;5.60;;
8675;SDS011;4375;52.486;13.424;2023-06-14T02:58:14;19.90;;;6.07;;
8675;SDS011;4375;52.486;13.424;2023-06-14T03:00:41;19.40;;;5.03;;
8675;SDS011;4375;52.486;13.424;2023-06-14T03:03:07;21.10;;;6.77;;
8675;SDS011;4375;52.486;13.424;2023-06-14T03:05:43;22.53;;;5.93;;
8675;SDS011;4375;52.486;13.424;2023-06-14T03:08:14;18.67;;;5.80;;
8675;SDS011;4375;52.486;13.424;2023-06-14T03:10:47;18.50;;;5.93;;
8675;SDS011;4375;52.486;13.424;2023-06-14T03:13:14;19.00;;;5.33;;
8675;SDS011;4375;52.486;13.424;2023-06-14T03:15:41;20.40;;;6.90;;
8675;SDS011;4375;52.486;13.424;2023-06-14T03:18:08;20.03;;;6.17;;
8675;SDS011;4375;52.486;13.424;2023-06-14T03:20:37;17.80;;;6.13;;
8675;SDS011;4375;52.486;13.424;2023-06-14T03:23:03;18.60;;;5.80;;
8675;SDS011;4375;52.486;13.424;2023-06-14T03:25:30;21.50;;;6.70;;
8675;SDS011;4375;52.486;13.424;2023-06-14T03:27:56;21.33;;;5.93;;
8675;SDS011;4375;52.486;13.424;2023-06-14T03:30:22;27.93;;;6.47;;
8675;SDS011;4375;52.486;13.424;2023-06-14T03:32:48;22.50;;;6.70;;
8675;SDS011;4375;52.486;13.424;2023-06-14T03:35:14;19.23;;;6.30;;
8675;SDS011;4375;52.486;13.424;2023-06-14T03:37:46;23.20;;;6.57;;
8675;SDS011;4375;52.486;13.424;2023-06-14T03:40:12;20.20;;;5.67;;
8675;SDS011;4375;52.486;13.424;2023-06-14T03:42:40;22.90;;;6.70;;
8675;SDS011;4375;52.486;13.424;2023-06-14T03:45:05;21.47;;;6.83;;
8675;SDS011;4375;52.486;13.424;2023-06-14T03:47:37;21.83;;;6.73;;
8675;SDS011;4375;52.486;13.424;2023-06-14T03:50:03;19.00;;;6.40;;
8675;SDS011;4375;52.486;13.424;2023-06-14T03:52:29;19.43;;;5.80;;
8675;SDS011;4375;52.486;13.424;2023-06-14T03:54:56;22.13;;;7.07;;
8675;SDS011;4375;52.486;13.424;2023-06-14T03:57:22;20.40;;;5.57;;
8675;SDS011;4375;52.486;13.424;2023-06-14T03:59:48;19.60;;;6.47;;
8675;SDS011;4375;52.486;13.424;2023-06-14T04:02:14;18.40;;;5.97;;
8675;SDS011;4375;52.486;13.424;2023-06-14T04:04:41;20.67;;;6.23;;
8675;SDS011;4375;52.486;13.424;2023-06-14T04:07:13;21.30;;;6.53;;
8675;SDS011;4375;52.486;13.424;2023-06-14T04:09:45;23.30;;;6.47;;
8675;SDS011;4375;52.486;13.424;2023-06-14T04:12:11;22.80;;;7.50;;
8675;SDS011;4375;52.486;13.424;2023-06-14T04:14:37;22.50;;;6.80;;
8675;SDS011;4375;52.486;13.424;2023-06-14T04:17:04;22.07;;;7.17;;
8675;SDS011;4375;52.486;13.424;2023-06-14T04:19:30;23.43;;;7.07;;
8675;SDS011;4375;52.486;13.424;2023-06-14T04:21:55;22.37;;;6.33;;
8675;SDS011;4375;52.486;13.424;2023-06-14T04:24:24;25.00;;;7.00;;
8675;SDS011;4375;52.486;13.424;2023-06-14T04:26:53;21.00;;;7.23;;
8675;SDS011;4375;52.486;13.424;2023-06-14T04:29:19;20.80;;;7.10;;
8675;SDS011;4375;52.486;13.424;2023-06-14T04:31:46;21.50;;;7.07;;
8675;SDS011;4375;52.486;13.424;2023-06-14T04:34:12;20.10;;;6.93;;
8675;SDS011;4375;52.486;13.424;2023-06-14T04:36:43;20.53;;;7.37;;
8675;SDS011;4375;52.486;13.424;2023-06-14T04:39:18;26.30;;;6.67;;
8675;SDS011;4375;52.486;13.424;2023-06-14T04:41:46;22.30;;;6.73;;
8675;SDS011;4375;52.486;13.424;2023-06-14T04:44:12;20.90;;;6.70;;
8675;SDS011;4375;52.486;13.424;2023-06-14T04:46:38;18.37;;;6.10;;
8675;SDS011;4375;52.486;13.424;2023-06-14T04:49:17;21.30;;;7.40;;
8675;SDS011;4375;52.486;13.424;2023-06-14T04:51:43;22.50;;;7.33;;
8675;SDS011;4375;52.486;13.424;2023-06-14T04:54:10;20.37;;;7.07;;
8675;SDS011;4375;52.486;13.424;2023-06-14T04:56:38;21.70;;;7.20;;
8675;SDS011;4375;52.486;13.424;2023-06-14T04:59:07;20.27;;;7.00;;
8675;SDS011;4375;52.486;13.424;2023-06-14T05:01:34;22.40;;;6.90;;
8675;SDS011;4375;52.486;13.424;2023-06-14T05:04:00;21.47;;;7.13;;
8675;SDS011;4375;52.486;13.424;2023-06-14T05:06:26;19.97;;;7.00;;
8675;SDS011;4375;52.486;13.424;2023-06-14T05:08:53;21.53;;;6.93;;
8675;SDS011;4375;52.486;13.424;2023-06-14T05:11:19;25.53;;;7.57;;
8675;SDS011;4375;52.486;13.424;2023-06-14T05:13:45;18.90;;;6.20;;
8675;SDS011;4375;52.486;13.424;2023-06-14T05:16:11;20.80;;;6.93;;
8675;SDS011;4375;52.486;13.424;2023-06-14T05:18:37;20.47;;;6.80;;
8675;SDS011;4375;52.486;13.424;2023-06-14T05:21:05;21.20;;;7.33;;
8675;SDS011;4375;52.486;13.424;2023-06-14T05:23:31;21.03;;;6.73;;
8675;SDS011;4375;52.486;13.424;2023-06-14T05:25:56;20.20;;;6.40;;
8675;SDS011;4375;52.486;13.424;2023-06-14T05:28:22;22.20;;;7.30;;
8675;SDS011;4375;52.486;13.424;2023-06-14T05:30:48;26.43;;;7.10;;
8675;SDS011;4375;52.486;13.424;2023-06-14T05:33:14;21.53;;;6.97;;
8675;SDS011;4375;52.486;13.424;2023-06-14T05:35:40;24.77;;;7.10;;
8675;SDS011;4375;52.486;13.424;2023-06-14T05:38:06;21.30;;;7.20;;
8675;SDS011;4375;52.486;13.424;2023-06-14T05:40:32;21.73;;;7.00;;
8675;SDS011;4375;52.486;13.424;2023-06-14T05:42:58;23.70;;;7.70;;
8675;SDS011;4375;52.486;13.424;2023-06-14T05:45:24;21.80;;;7.70;;
8675;SDS011;4375;52.486;13.424;2023-06-14T05:47:50;22.50;;;7.87;;
8675;SDS011;4375;52.486;13.424;2023-06-14T05:50:16;23.40;;;7.90;;
8675;SDS011;4375;52.486;13.424;2023-06-14T05:52:41;20.27;;;7.27;;
8675;SDS011;4375;52.486;13.424;2023-06-14T05:55:07;25.30;;;6.70;;
8675;SDS011;4375;52.486;13.424;2023-06-14T05:57:33;26.63;;;6.93;;
8675;SDS011;4375;52.486;13.424;2023-06-14T05:59:59;20.97;;;7.10;;
8675;SDS011;4375;52.486;13.424;2023-06-14T06:02:25;25.70;;;7.27;;
8675;SDS011;4375;52.486;13.424;2023-06-14T06:04:50;23.20;;;7.63;;
8675;SDS011;4375;52.486;13.424;2023-06-14T06:07:16;22.90;;;7.30;;
8675;SDS011;4375;52.486;13.424;2023-06-14T06:09:41;26.27;;;7.97;;
8675;SDS011;4375;52.486;13.424;2023-06-14T06:12:07;19.90;;;7.00;;
8675;SDS011;4375;52.486;13.424;2023-06-14T06:14:33;55.43;;;9.20;;
8675;SDS011;4375;52.486;13.424;2023-06-14T06:16:58;119.07;;;12.60;;
8675;SDS011;4375;52.486;13.424;2023-06-14T06:19:24;25.93;;;7.50;;
8675;SDS011;4375;52.486;13.424;2023-06-14T06:21:50;23.87;;;8.37;;
8675;SDS011;4375;52.486;13.424;2023-06-14T06:24:16;25.33;;;7.53;;
8675;SDS011;4375;52.486;13.424;2023-06-14T06:26:41;21.50;;;7.23;;
8675;SDS011;4375;52.486;13.424;2023-06-14T06:29:07;21.37;;;8.17;;
8675;SDS011;4375;52.486;13.424;2023-06-14T06:31:33;23.40;;;7.17;;
8675;SDS011;4375;52.486;13.424;2023-06-14T06:33:59;21.63;;;7.20;;
8675;SDS011;4375;52.486;13.424;2023-06-14T06:36:25;21.30;;;6.87;;
8675;SDS011;4375;52.486;13.424;2023-06-14T06:38:50;27.97;;;7.43;;
8675;SDS011;4375;52.486;13.424;2023-06-14T06:41:16;22.77;;;7.20;;
8675;SDS011;4375;52.486;13.424;2023-06-14T06:43:42;20.20;;;6.37;;
8675;SDS011;4375;52.486;13.424;2023-06-14T06:46:07;22.30;;;7.33;;
8675;SDS011;4375;52.486;13.424;2023-06-14T06:48:33;22.30;;;7.30;;
8675;SDS011;4375;52.486;13.424;2023-06-14T06:50:59;21.87;;;6.40;;
8675;SDS011;4375;52.486;13.424;2023-06-14T06:53:24;21.67;;;6.30;;
8675;SDS011;4375;52.486;13.424;2023-06-14T06:55:50;23.93;;;6.63;;
8675;SDS011;4375;52.486;13.424;2023-06-14T06:58:15;19.23;;;6.30;;
8675;SDS011;4375;52.486;13.424;2023-06-14T07:00:41;20.60;;;6.83;;
8675;SDS011;4375;52.486;13.424;2023-06-14T07:03:07;20.23;;;6.27;;
8675;SDS011;4375;52.486;13.424;2023-06-14T07:05:33;25.20;;;7.73;;
8675;SDS011;4375;52.486;13.424;2023-06-14T07:07:58;24.80;;;8.70;;
8675;SDS011;4375;52.486;13.424;2023-06-14T07:10:24;23.13;;;8.63;;
8675;SDS011;4375;52.486;13.424;2023-06-14T07:12:50;29.87;;;9.93;;
8675;SDS011;4375;52.486;13.424;2023-06-14T07:15:16;28.53;;;7.23;;
8675;SDS011;4375;52.486;13.424;2023-06-14T07:17:42;22.23;;;6.67;;
8675;SDS011;4375;52.486;13.424;2023-06-14T07:20:08;26.67;;;6.90;;
8675;SDS011;4375;52.486;13.424;2023-06-14T07:22:37;23.53;;;6.30;;
8675;SDS011;4375;52.486;13.424;2023-06-14T07:25:04;22.00;;;6.83;;
8675;SDS011;4375;52.486;13.424;2023-06-14T07:27:30;20.80;;;6.57;;
8675;SDS011;4375;52.486;13.424;2023-06-14T07:29:55;23.93;;;7.03;;
8675;SDS011;4375;52.486;13.424;2023-06-14T07:32:21;25.70;;;7.03;;
8675;SDS011;4375;52.486;13.424;2023-06-14T07:34:46;21.10;;;7.03;;
8675;SDS011;4375;52.486;13.424;2023-06-14T07:37:12;19.20;;;5.87;;
8675;SDS011;4375;52.486;13.424;2023-06-14T07:39:38;19.83;;;5.83;;
8675;SDS011;4375;52.486;13.424;2023-06-14T07:42:03;20.10;;;6.13;;
8675;SDS011;4375;52.486;13.424;2023-06-14T07:44:30;21.63;;;6.00;;
8675;SDS011;4375;52.486;13.424;2023-06-14T07:46:58;20.40;;;6.70;;
8675;SDS011;4375;52.486;13.424;2023-06-14T07:49:25;20.47;;;6.90;;
8675;SDS011;4375;52.486;13.424;2023-06-14T07:51:51;22.20;;;6.10;;
8675;SDS011;4375;52.486;13.424;2023-06-14T07:54:16;23.23;;;6.73;;
8675;SDS011;4375;52.486;13.424;2023-06-14T07:56:42;21.80;;;6.27;;
8675;SDS011;4375;52.486;13.424;2023-06-14T07:59:08;24.67;;;6.53;;
8675;SDS011;4375;52.486;13.424;2023-06-14T08:01:34;22.27;;;7.87;;
8675;SDS011;4375;52.486;13.424;2023-06-14T08:03:59;20.60;;;6.50;;
8675;SDS011;4375;52.486;13.424;2023-06-14T08:06:26;22.13;;;6.37;;
8675;SDS011;4375;52.486;13.424;2023-06-14T08:08:52;20.83;;;6.20;;
8675;SDS011;4375;52.486;13.424;2023-06-14T08:11:17;24.37;;;6.93;;
8675;SDS011;4375;52.486;13.424;2023-06-14T08:13:43;20.80;;;6.53;;
8675;SDS011;4375;52.486;13.424;2023-06-14T08:16:08;23.93;;;6.67;;
8675;SDS011;4375;52.486;13.424;2023-06-14T08:18:34;29.13;;;5.50;;
8675;SDS011;4375;52.486;13.424;2023-06-14T08:21:00;21.17;;;6.33;;
8675;SDS011;4375;52.486;13.424;2023-06-14T08:23:25;22.27;;;7.27;;
8675;SDS011;4375;52.486;13.424;2023-06-14T08:25:52;25.50;;;5.80;;
8675;SDS011;4375;52.486;13.424;2023-06-14T08:28:17;26.20;;;6.17;;
8675;SDS011;4375;52.486;13.424;2023-06-14T08:30:43;19.80;;;5.30;;
8675;SDS011;4375;52.486;13.424;2023-06-14T08:33:09;21.53;;;5.50;;
8675;SDS011;4375;52.486;13.424;2023-06-14T08:35:34;26.73;;;5.37;;
8675;SDS011;4375;52.486;13.424;2023-06-14T08:38:04;28.13;;;5.90;;
8675;SDS011;4375;52.486;13.424;2023-06-14T08:40:30;19.83;;;5.23;;
8675;SDS011;4375;52.486;13.424;2023-06-14T08:42:56;23.43;;;5.63;;
8675;SDS011;4375;52.486;13.424;2023-06-14T08:45:23;20.23;;;4.93;;
8675;SDS011;4375;52.486;13.424;2023-06-14T08:47:50;29.07;;;6.07;;
8675;SDS011;4375;52.486;13.424;2023-06-14T08:50:22;20.33;;;4.67;;
8675;SDS011;4375;52.486;13.424;2023-06-14T08:52:56;23.37;;;6.10;;
8675;SDS011;4375;52.486;13.424;2023-06-14T08:55:25;22.97;;;6.00;;
8675;SDS011;4375;52.486;13.424;2023-06-14T08:57:56;20.30;;;5.00;;
8675;SDS011;4375;52.486;13.424;2023-06-14T09:00:23;21.90;;;5.33;;
8675;SDS011;4375;52.486;13.424;2023-06-14T09:02:50;24.47;;;5.27;;
8675;SDS011;4375;52.486;13.424;2023-06-14T09:05:25;23.00;;;6.63;;
8675;SDS011;4375;52.486;13.424;2023-06-14T09:07:51;21.70;;;5.13;;
8675;SDS011;4375;52.486;13.424;2023-06-14T09:12:54;19.50;;;4.57;;
8675;SDS011;4375;52.486;13.424;2023-06-14T09:15:20;19.43;;;4.37;;
8675;SDS011;4375;52.486;13.424;2023-06-14T09:17:46;19.00;;;4.83;;
8675;SDS011;4375;52.486;13.424;2023-06-14T09:20:12;18.37;;;5.17;;
8675;SDS011;4375;52.486;13.424;2023-06-14T09:22:43;24.40;;;4.73;;
8675;SDS011;4375;52.486;13.424;2023-06-14T09:25:09;18.13;;;4.87;;
8675;SDS011;4375;52.486;13.424;2023-06-14T09:27:37;17.97;;;4.40;;
8675;SDS011;4375;52.486;13.424;2023-06-14T09:30:05;19.70;;;5.23;;
8675;SDS011;4375;52.486;13.424;2023-06-14T09:32:36;24.50;;;6.20;;
8675;SDS011;4375;52.486;13.424;2023-06-14T09:35:03;21.27;;;4.83;;
8675;SDS011;4375;52.486;13.424;2023-06-14T09:37:30;18.93;;;4.43;;
8675;SDS011;4375;52.486;13.424;2023-06-14T09:39:57;20.87;;;5.77;;
8675;SDS011;4375;52.486;13.424;2023-06-14T09:42:23;32.73;;;5.70;;
8675;SDS011;4375;52.486;13.424;2023-06-14T09:44:53;18.90;;;4.80;;
8675;SDS011;4375;52.486;13.424;2023-06-14T09:47:21;17.73;;;5.30;;
8675;SDS011;4375;52.486;13.424;2023-06-14T09:49:47;19.97;;;5.57;;
8675;SDS011;4375;52.486;13.424;2023-06-14T09:52:15;19.87;;;4.93;;
8675;SDS011;4375;52.486;13.424;2023-06-14T09:54:45;18.70;;;4.87;;
8675;SDS011;4375;52.486;13.424;2023-06-14T09:57:16;20.30;;;5.80;;
8675;SDS011;4375;52.486;13.424;2023-06-14T09:59:46;21.37;;;4.90;;
8675;SDS011;4375;52.486;13.424;2023-06-14T10:02:26;18.80;;;4.50;;
8675;SDS011;4375;52.486;13.424;2023-06-14T10:05:03;24.13;;;4.47;;
8675;SDS011;4375;52.486;13.424;2023-06-14T10:07:32;19.90;;;4.80;;
8675;SDS011;4375;52.486;13.424;2023-06-14T10:10:05;18.77;;;4.40;;
8675;SDS011;4375;52.486;13.424;2023-06-14T10:12:32;22.87;;;5.57;;
8675;SDS011;4375;52.486;13.424;2023-06-14T10:14:58;21.27;;;7.53;;
8675;SDS011;4375;52.486;13.424;2023-06-14T10:17:38;18.10;;;5.83;;
8675;SDS011;4375;52.486;13.424;2023-06-14T10:22:57;19.00;;;4.37;;
8675;SDS011;4375;52.486;13.424;2023-06-14T10:25:32;26.47;;;5.77;;
8675;SDS011;4375;52.486;13.424;2023-06-14T10:28:17;22.80;;;5.77;;
8675;SDS011;4375;52.486;13.424;2023-06-14T10:33:29;19.93;;;5.50;;
8675;SDS011;4375;52.486;13.424;2023-06-14T10:36:09;25.07;;;6.27;;
8675;SDS011;4375;52.486;13.424;2023-06-14T10:38:49;22.77;;;5.60;;
8675;SDS011;4375;52.486;13.424;2023-06-14T10:41:26;26.73;;;5.40;;
8675;SDS011;4375;52.486;13.424;2023-06-14T10:44:09;22.80;;;5.50;;
8675;SDS011;4375;52.486;13.424;2023-06-14T10:46:39;24.07;;;5.10;;
8675;SDS011;4375;52.486;13.424;2023-06-14T10:49:05;23.57;;;5.20;;
8675;SDS011;4375;52.486;13.424;2023-06-14T10:51:38;23.40;;;5.20;;
8675;SDS011;4375;52.486;13.424;2023-06-14T10:54:11;22.90;;;4.97;;
8675;SDS011;4375;52.486;13.424;2023-06-14T10:56:39;21.17;;;5.00;;
8675;SDS011;4375;52.486;13.424;2023-06-14T10:59:12;18.07;;;4.80;;
8675;SDS011;4375;52.486;13.424;2023-06-14T11:01:45;24.40;;;4.50;;
8675;SDS011;4375;52.486;13.424;2023-06-14T11:04:20;18.23;;;4.20;;
8675;SDS011;4375;52.486;13.424;2023-06-14T11:06:55;23.37;;;7.27;;
8675;SDS011;4375;52.486;13.424;2023-06-14T11:09:50;29.60;;;7.40;;
8675;SDS011;4375;52.486;13.424;2023-06-14T11:12:35;23.33;;;6.23;;
8675;SDS011;4375;52.486;13.424;2023-06-14T11:15:01;17.40;;;4.77;;
8675;SDS011;4375;52.486;13.424;2023-06-14T11:17:27;18.67;;;5.60;;
8675;SDS011;4375;52.486;13.424;2023-06-14T11:20:10;19.87;;;5.30;;
8675;SDS011;4375;52.486;13.424;2023-06-14T11:22:43;19.27;;;5.07;;
8675;SDS011;4375;52.486;13.424;2023-06-14T11:25:09;21.77;;;4.53;;
8675;SDS011;4375;52.486;13.424;2023-06-14T11:27:37;21.23;;;5.10;;
8675;SDS011;4375;52.486;13.424;2023-06-14T11:30:03;19.43;;;4.40;;
8675;SDS011;4375;52.486;13.424;2023-06-14T11:32:32;22.23;;;5.20;;
8675;SDS011;4375;52.486;13.424;2023-06-14T11:34:57;19.53;;;4.50;;
8675;SDS011;4375;52.486;13.424;2023-06-14T11:37:26;20.70;;;5.23;;
8675;SDS011;4375;52.486;13.424;2023-06-14T11:40:02;22.37;;;4.83;;
8675;SDS011;4375;52.486;13.424;2023-06-14T11:42:36;19.60;;;4.60;;
8675;SDS011;4375;52.486;13.424;2023-06-14T11:45:04;16.60;;;4.47;;
8675;SDS011;4375;52.486;13.424;2023-06-14T11:47:35;18.43;;;5.87;;
8675;SDS011;4375;52.486;13.424;2023-06-14T11:50:02;19.53;;;4.97;;
8675;SDS011;4375;52.486;13.424;2023-06-14T11:52:29;23.67;;;4.20;;
8675;SDS011;4375;52.486;13.424;2023-06-14T11:54:55;18.63;;;4.37;;
8675;SDS011;4375;52.486;13.424;2023-06-14T11:57:22;20.20;;;4.63;;
8675;SDS011;4375;52.486;13.424;2023-06-14T11:59:48;18.50;;;4.20;;
8675;SDS011;4375;52.486;13.424;2023-06-14T12:02:14;19.27;;;4.97;;
8675;SDS011;4375;52.486;13.424;2023-06-14T12:04:44;23.03;;;5.30;;
8675;SDS011;4375;52.486;13.424;2023-06-14T12:07:15;18.73;;;4.93;;
8675;SDS011;4375;52.486;13.424;2023-06-14T12:12:18;19.67;;;4.70;;
8675;SDS011;4375;52.486;13.424;2023-06-14T12:14:46;18.27;;;4.27;;
8675;SDS011;4375;52.486;13.424;2023-06-14T12:17:13;19.47;;;4.50;;
8675;SDS011;4375;52.486;13.424;2023-06-14T12:19:42;20.70;;;4.83;;
8675;SDS011;4375;52.486;13.424;2023-06-14T12:22:09;20.90;;;4.63;;
8675;SDS011;4375;52.486;13.424;2023-06-14T12:24:35;21.80;;;5.57;;
8675;SDS011;4375;52.486;13.424;2023-06-14T12:27:01;19.67;;;4.93;;
8675;SDS011;4375;52.486;13.424;2023-06-14T12:29:28;22.27;;;4.90;;
8675;SDS011;4375;52.486;13.424;2023-06-14T12:31:55;21.13;;;4.70;;
8675;SDS011;4375;52.486;13.424;2023-06-14T12:34:22;18.80;;;4.23;;
8675;SDS011;4375;52.486;13.424;2023-06-14T12:36:49;21.60;;;4.33;;
8675;SDS011;4375;52.486;13.424;2023-06-14T12:39:15;26.50;;;4.40;;
8675;SDS011;4375;52.486;13.424;2023-06-14T12:41:41;21.50;;;4.40;;
8675;SDS011;4375;52.486;13.424;2023-06-14T12:44:07;21.30;;;4.20;;
8675;SDS011;4375;52.486;13.424;2023-06-14T12:46:33;22.00;;;5.10;;
8675;SDS011;4375;52.486;13.424;2023-06-14T12:49:00;20.67;;;4.37;;
8675;SDS011;4375;52.486;13.424;2023-06-14T12:51:26;18.90;;;4.70;;
8675;SDS011;4375;52.486;13.424;2023-06-14T12:53:51;15.97;;;3.63;;
8675;SDS011;4375;52.486;13.424;2023-06-14T12:56:17;19.43;;;4.10;;
8675;SDS011;4375;52.486;13.424;2023-06-14T12:58:43;19.43;;;3.73;;
8675;SDS011;4375;52.486;13.424;2023-06-14T13:01:08;16.30;;;3.20;;
8675;SDS011;4375;52.486;13.424;2023-06-14T13:03:34;23.10;;;4.07;;
8675;SDS011;4375;52.486;13.424;2023-06-14T13:06:00;18.83;;;4.53;;
8675;SDS011;4375;52.486;13.424;2023-06-14T13:08:27;19.47;;;5.20;;
8675;SDS011;4375;52.486;13.424;2023-06-14T13:10:53;24.37;;;5.27;;
8675;SDS011;4375;52.486;13.424;2023-06-14T13:13:19;19.33;;;4.87;;
8675;SDS011;4375;52.486;13.424;2023-06-14T13:15:47;17.93;;;4.20;;
8675;SDS011;4375;52.486;13.424;2023-06-14T13:18:14;19.30;;;4.70;;
8675;SDS011;4375;52.486;13.424;2023-06-14T13:20:40;20.73;;;4.30;;
8675;SDS011;4375;52.486;13.424;2023-06-14T13:23:06;17.47;;;4.13;;
8675;SDS011;4375;52.486;13.424;2023-06-14T13:25:33;18.03;;;4.30;;
8675;SDS011;4375;52.486;13.424;2023-06-14T13:27:59;27.03;;;5.97;;
8675;SDS011;4375;52.486;13.424;2023-06-14T13:30:25;18.90;;;5.77;;
8675;SDS011;4375;52.486;13.424;2023-06-14T13:32:53;19.63;;;4.20;;
8675;SDS011;4375;52.486;13.424;2023-06-14T13:35:23;17.40;;;3.70;;
8675;SDS011;4375;52.486;13.424;2023-06-14T13:37:49;17.20;;;3.90;;
8675;SDS011;4375;52.486;13.424;2023-06-14T13:40:15;18.70;;;4.20;;
8675;SDS011;4375;52.486;13.424;2023-06-14T13:42:41;20.97;;;4.63;;
8675;SDS011;4375;52.486;13.424;2023-06-14T13:45:07;22.13;;;4.03;;
8675;SDS011;4375;52.486;13.424;2023-06-14T13:47:33;15.90;;;3.57;;
8675;SDS011;4375;52.486;13.424;2023-06-14T13:49:59;21.13;;;4.40;;
8675;SDS011;4375;52.486;13.424;2023-06-14T13:52:25;18.27;;;4.07;;
8675;SDS011;4375;52.486;13.424;2023-06-14T13:54:51;22.20;;;4.57;;
8675;SDS011;4375;52.486;13.424;2023-06-14T13:57:17;19.13;;;4.17;;
8675;SDS011;4375;52.486;13.424;2023-06-14T13:59:43;21.97;;;4.63;;
8675;SDS011;4375;52.486;13.424;2023-06-14T14:02:09;17.33;;;3.90;;
8675;SDS011;4375;52.486;13.424;2023-06-14T14:04:36;21.10;;;4.23;;
8675;SDS011;4375;52.486;13.424;2023-06-14T14:07:03;19.10;;;4.10;;
8675;SDS011;4375;52.486;13.424;2023-06-14T14:09:29;17.03;;;3.87;;
8675;SDS011;4375;52.486;13.424;2023-06-14T14:11:55;18.97;;;4.00;;
8675;SDS011;4375;52.486;13.424;2023-06-14T14:14:21;23.23;;;4.30;;
8675;SDS011;4375;52.486;13.424;2023-06-14T14:16:48;21.07;;;4.43;;
8675;SDS011;4375;52.486;13.424;2023-06-14T14:19:16;18.93;;;4.70;;
8675;SDS011;4375;52.486;13.424;2023-06-14T14:21:43;19.17;;;4.27;;
8675;SDS011;4375;52.486;13.424;2023-06-14T14:24:09;17.47;;;3.90;;
8675;SDS011;4375;52.486;13.424;2023-06-14T14:26:35;22.90;;;4.00;;
8675;SDS011;4375;52.486;13.424;2023-06-14T14:29:01;23.77;;;4.83;;
8675;SDS011;4375;52.486;13.424;2023-06-14T14:31:27;19.03;;;4.63;;
8675;SDS011;4375;52.486;13.424;2023-06-14T14:33:53;21.53;;;5.27;;
8675;SDS011;4375;52.486;13.424;2023-06-14T14:36:19;17.23;;;3.43;;
8675;SDS011;4375;52.486;13.424;2023-06-14T14:38:45;21.33;;;3.63;;
8675;SDS011;4375;52.486;13.424;2023-06-14T14:41:12;17.33;;;4.00;;
8675;SDS011;4375;52.486;13.424;2023-06-14T14:43:38;21.93;;;3.87;;
8675;SDS011;4375;52.486;13.424;2023-06-14T14:46:04;19.33;;;4.30;;
8675;SDS011;4375;52.486;13.424;2023-06-14T14:48:29;20.67;;;6.67;;
8675;SDS011;4375;52.486;13.424;2023-06-14T14:50:55;21.40;;;6.00;;
8675;SDS011;4375;52.486;13.424;2023-06-14T14:53:21;27.43;;;7.83;;
8675;SDS011;4375;52.486;13.424;2023-06-14T14:55:46;21.40;;;6.33;;
8675;SDS011;4375;52.486;13.424;2023-06-14T14:58:12;23.20;;;5.33;;
8675;SDS011;4375;52.486;13.424;2023-06-14T15:00:42;18.10;;;5.13;;
8675;SDS011;4375;52.486;13.424;2023-06-14T15:03:11;23.30;;;5.10;;
8675;SDS011;4375;52.486;13.424;2023-06-14T15:05:37;17.80;;;3.80;;